createdAt,value
2023-05-08T00:01:59.803Z,5.40
2023-05-08T00:07:01.712Z,9.20
2023-05-08T00:12:03.642Z,6.90
2023-05-08T00:17:05.741Z,6.70
2023-05-08T00:22:08.059Z,7.00
2023-05-08T00:27:09.853Z,12.50
2023-05-08T00:32:12.082Z,9.10
2023-05-08T00:37:32.701Z,5.70
2023-05-08T00:42:34.621Z,6.10
2023-05-08T00:47:36.748Z,7.30
2023-05-08T00:52:39.350Z,6.70
2023-05-08T00:57:41.300Z,5.10
2023-05-08T01:02:43.773Z,5.50
2023-05-08T01:07:45.625Z,5.20
2023-05-08T01:13:07.686Z,4.10
2023-05-08T01:18:42.741Z,3.60
2023-05-08T01:24:36.695Z,4.80
2023-05-08T01:30:11.536Z,5.00
2023-05-08T01:35:41.220Z,4.80
2023-05-08T01:41:08.998Z,4.70
2023-05-08T01:46:16.918Z,5.80
2023-05-08T01:51:23.009Z,7.90
2023-05-08T01:56:29.130Z,4.40
2023-05-08T02:01:33.415Z,4.10
2023-05-08T02:06:37.408Z,4.60
2023-05-08T02:11:46.096Z,3.60
2023-05-08T02:16:54.954Z,3.70
2023-05-08T02:22:00.604Z,3.20
2023-05-08T02:27:02.812Z,3.20
2023-05-08T02:32:06.697Z,4.50
2023-05-08T02:37:10.474Z,4.80
2023-05-08T02:42:12.827Z,3.70
2023-05-08T02:47:29.756Z,4.10
2023-05-08T02:53:03.384Z,4.50
2023-05-08T02:58:08.293Z,5.10
2023-05-08T03:03:21.159Z,4.00
2023-05-08T03:08:28.349Z,4.00
2023-05-08T03:13:34.563Z,4.90
2023-05-08T03:18:54.927Z,5.10
2023-05-08T03:24:00.738Z,4.40
2023-05-08T03:29:03.015Z,4.50
2023-05-08T03:34:09.707Z,5.90
2023-05-08T03:39:12.216Z,4.60
2023-05-08T03:44:16.561Z,5.50
2023-05-08T03:49:20.044Z,4.80
2023-05-08T03:54:25.413Z,4.10
2023-05-08T03:59:33.346Z,3.80
2023-05-08T04:04:40.892Z,5.00
2023-05-08T04:09:58.358Z,5.70
2023-05-08T04:15:09.286Z,6.80
2023-05-08T04:20:17.152Z,5.60
2023-05-08T04:25:21.379Z,3.80
2023-05-08T04:30:24.668Z,3.80
2023-05-08T04:35:26.791Z,3.80
2023-05-08T04:40:29.489Z,4.70
2023-05-08T04:45:31.750Z,6.00
2023-05-08T04:50:33.663Z,5.70
2023-05-08T04:55:35.590Z,4.00
2023-05-08T05:00:37.525Z,4.70
2023-05-08T05:05:39.534Z,63.90
2023-05-08T05:10:41.558Z,5.10
2023-05-08T05:15:43.536Z,3.50
2023-05-08T05:20:46.311Z,5.50
2023-05-08T05:25:48.579Z,5.30
2023-05-08T05:30:50.344Z,6.70
2023-05-08T05:35:52.434Z,10.80
2023-05-08T05:40:54.349Z,20.40
2023-05-08T05:45:56.284Z,5.30
2023-05-08T05:50:59.578Z,4.90
2023-05-08T05:56:01.343Z,4.80
2023-05-08T06:01:04.680Z,5.50
2023-05-08T06:06:06.931Z,3.20
2023-05-08T06:11:08.825Z,5.20
2023-05-08T06:16:10.637Z,4.70
2023-05-08T06:21:12.360Z,3.50
2023-05-08T06:26:29.896Z,3.50
2023-05-08T06:31:34.643Z,4.50
2023-05-08T06:36:36.676Z,3.70
2023-05-08T06:41:38.477Z,3.80
2023-05-08T06:46:40.663Z,8.50
2023-05-08T06:51:42.546Z,4.40
2023-05-08T06:56:44.438Z,3.50
2023-05-08T07:01:46.332Z,6.40
2023-05-08T07:06:48.161Z,5.20
2023-05-08T07:11:49.880Z,5.20
2023-05-08T07:16:51.583Z,5.30
2023-05-08T07:21:53.314Z,8.00
2023-05-08T07:26:55.291Z,7.40
2023-05-08T07:31:57.122Z,8.00
2023-05-08T07:36:58.994Z,6.70
2023-05-08T07:42:01.605Z,4.60
2023-05-08T07:47:03.853Z,6.60
2023-05-08T07:52:05.832Z,6.30
2023-05-08T07:57:07.587Z,6.90
2023-05-08T08:02:09.548Z,6.00
2023-05-08T08:07:11.438Z,6.80
2023-05-08T08:12:13.122Z,4.30
2023-05-08T08:17:14.862Z,5.70
2023-05-08T08:22:16.705Z,3.80
2023-05-08T08:27:18.387Z,5.30
2023-05-08T08:32:20.075Z,5.80
2023-05-08T08:37:22.179Z,9.40
2023-05-08T08:42:24.234Z,3.70
2023-05-08T08:47:29.915Z,5.30
2023-05-08T08:52:54.527Z,5.70
2023-05-08T08:58:26.708Z,7.70
2023-05-08T09:03:28.620Z,3.50
2023-05-08T09:08:30.887Z,7.60
2023-05-08T09:13:32.653Z,6.70
2023-05-08T09:18:34.378Z,6.20
2023-05-08T09:23:36.737Z,7.10
2023-05-08T09:28:38.500Z,6.80
2023-05-08T09:33:44.753Z,8.30
2023-05-08T09:38:46.497Z,6.30
2023-05-08T09:44:01.621Z,5.30
2023-05-08T09:49:04.477Z,7.70
2023-05-08T09:54:17.897Z,7.70
2023-05-08T09:59:27.982Z,6.10
2023-05-08T10:04:34.222Z,4.30
2023-05-08T10:09:49.678Z,6.60
2023-05-08T10:14:52.394Z,6.00
2023-05-08T10:20:00.068Z,7.90
2023-05-08T10:25:06.626Z,10.10
2023-05-08T10:30:10.000Z,8.40
2023-05-08T10:35:12.437Z,7.60
2023-05-08T10:40:18.711Z,6.90
2023-05-08T10:45:20.734Z,8.40
2023-05-08T10:50:33.715Z,6.40
2023-05-08T10:55:41.357Z,6.90
2023-05-08T11:01:09.414Z,6.90
2023-05-08T11:06:13.619Z,8.50
2023-05-08T11:11:24.720Z,6.70
2023-05-08T11:16:54.800Z,7.00
2023-05-08T11:22:23.916Z,8.10
2023-05-08T11:27:34.999Z,4.30
2023-05-08T11:32:56.116Z,3.90
2023-05-08T11:38:17.255Z,6.40
2023-05-08T11:43:29.311Z,5.40
2023-05-08T11:48:32.800Z,4.00
2023-05-08T11:53:36.505Z,5.00
2023-05-08T11:58:40.745Z,5.60
2023-05-08T12:04:02.152Z,4.70
2023-05-08T12:09:13.127Z,4.90
2023-05-08T12:14:18.254Z,6.30
2023-05-08T12:19:20.570Z,4.10
2023-05-08T12:24:23.733Z,7.40
2023-05-08T12:34:30.403Z,3.80
2023-05-08T12:39:37.523Z,6.60
2023-05-08T12:44:39.327Z,4.90
2023-05-08T12:49:41.055Z,3.30
2023-05-08T12:54:49.513Z,3.60
2023-05-08T12:59:51.369Z,5.20
2023-05-08T13:04:56.569Z,4.80
2023-05-08T13:10:05.514Z,3.60
2023-05-08T13:15:08.233Z,5.90
2023-05-08T13:20:11.383Z,5.00
2023-05-08T13:25:13.719Z,5.80
2023-05-08T13:30:16.687Z,5.50
2023-05-08T13:35:19.514Z,3.60
2023-05-08T13:40:21.546Z,3.80
2023-05-08T13:45:23.482Z,3.30
2023-05-08T13:50:25.399Z,4.70
2023-05-08T13:55:27.247Z,5.50
2023-05-08T14:00:29.040Z,5.40
2023-05-08T14:05:30.823Z,4.30
2023-05-08T14:10:32.617Z,5.20
2023-05-08T14:15:37.398Z,2.50
2023-05-08T14:20:39.566Z,4.20
2023-05-08T14:25:41.294Z,4.60
2023-05-08T14:30:42.963Z,4.90
2023-05-08T14:35:45.956Z,4.40
2023-05-08T14:40:51.099Z,4.50
2023-05-08T14:45:52.939Z,7.00
2023-05-08T14:50:54.796Z,4.60
2023-05-08T14:55:56.872Z,3.70
2023-05-08T15:00:58.864Z,2.80
2023-05-08T15:06:01.198Z,4.50
2023-05-08T15:11:02.888Z,4.50
2023-05-08T15:16:05.585Z,8.40
2023-05-08T15:21:07.406Z,6.20
2023-05-08T15:26:09.184Z,3.40
2023-05-08T15:31:10.831Z,3.80
2023-05-08T15:36:13.677Z,4.30
2023-05-08T15:41:15.743Z,3.60
2023-05-08T15:46:17.748Z,4.00
2023-05-08T15:51:19.810Z,3.50
2023-05-08T15:56:24.465Z,4.10
2023-05-08T16:01:26.233Z,4.80
2023-05-08T16:06:28.544Z,5.70
2023-05-08T16:11:33.769Z,4.10
2023-05-08T16:16:35.707Z,4.40
2023-05-08T16:21:37.552Z,6.90
2023-05-08T16:26:39.243Z,7.20
2023-05-08T16:31:40.938Z,6.70
2023-05-08T16:36:42.674Z,9.40
2023-05-08T16:41:44.555Z,10.30
2023-05-08T16:46:54.282Z,9.10
2023-05-08T16:56:58.071Z,12.30
2023-05-08T17:01:59.963Z,18.50
2023-05-08T17:07:01.822Z,9.90
2023-05-08T17:12:03.812Z,8.40
2023-05-08T17:17:06.269Z,10.80
2023-05-08T17:22:08.011Z,7.00
2023-05-08T17:27:09.909Z,10.90
2023-05-08T17:32:11.802Z,7.70
2023-05-08T17:37:13.749Z,10.90
2023-05-08T17:42:15.957Z,12.50
2023-05-08T17:47:17.974Z,11.80
2023-05-08T17:52:19.649Z,8.80
2023-05-08T17:57:21.444Z,9.10
2023-05-08T18:02:23.224Z,11.30
2023-05-08T18:07:25.315Z,15.60
2023-05-08T18:12:27.017Z,10.50
2023-05-08T18:17:29.794Z,11.80
2023-05-08T18:22:31.610Z,10.10
2023-05-08T18:27:36.269Z,21.10
2023-05-08T18:32:37.968Z,18.70
2023-05-08T18:37:39.699Z,14.90
2023-05-08T18:42:41.393Z,18.60
2023-05-08T18:47:43.132Z,21.50
2023-05-08T18:52:45.071Z,25.00
2023-05-08T18:57:46.785Z,20.10
2023-05-08T19:02:48.526Z,20.10
2023-05-08T19:07:50.480Z,17.70
2023-05-08T19:12:52.196Z,18.90
2023-05-08T19:17:54.027Z,16.50
2023-05-08T19:22:55.784Z,19.70
2023-05-08T19:27:58.739Z,19.20
2023-05-08T19:33:00.413Z,23.60
2023-05-08T19:38:02.134Z,18.60
2023-05-08T19:43:04.195Z,23.40
2023-05-08T19:48:10.562Z,32.70
2023-05-08T19:53:17.980Z,22.60
2023-05-08T19:58:19.712Z,19.70
2023-05-08T20:03:21.528Z,21.20
2023-05-08T20:08:23.517Z,24.90
2023-05-08T20:13:25.435Z,47.00
2023-05-08T20:18:27.269Z,97.40
2023-05-08T20:23:29.029Z,65.40
2023-05-08T20:28:31.129Z,61.80
2023-05-08T20:33:32.854Z,41.90
2023-05-08T20:38:36.550Z,39.40
2023-05-08T20:43:38.580Z,41.90
2023-05-08T20:48:40.395Z,38.90
2023-05-08T20:53:42.141Z,41.90
2023-05-08T20:58:43.806Z,60.70
2023-05-08T21:03:45.551Z,63.30
2023-05-08T21:08:48.231Z,75.10
2023-05-08T21:13:55.434Z,63.30
2023-05-08T21:18:58.327Z,61.40
2023-05-08T21:24:00.379Z,55.30
2023-05-08T21:29:04.283Z,49.20
2023-05-08T21:34:07.293Z,41.20
2023-05-08T21:39:10.818Z,34.00
2023-05-08T21:44:15.718Z,39.70
2023-05-08T21:49:19.764Z,52.80
2023-05-08T21:54:24.172Z,45.70
2023-05-08T22:04:27.971Z,23.90
2023-05-08T22:09:29.724Z,16.00
2023-05-08T22:14:31.454Z,14.50
2023-05-08T22:19:33.270Z,13.20
2023-05-08T22:24:34.985Z,15.30
2023-05-08T22:29:36.629Z,11.50
2023-05-08T22:34:38.642Z,30.80
2023-05-08T22:39:40.408Z,27.60
2023-05-08T22:44:43.527Z,18.90
2023-05-08T22:49:45.212Z,17.00
2023-05-08T22:54:47.059Z,16.10
2023-05-08T22:59:48.907Z,14.80
2023-05-08T23:04:51.051Z,14.00
2023-05-08T23:09:53.830Z,11.50
2023-05-08T23:14:57.992Z,14.80
2023-05-08T23:19:59.781Z,24.60
2023-05-08T23:25:01.509Z,21.00
2023-05-08T23:30:03.634Z,12.40
2023-05-08T23:35:11.638Z,13.30
2023-05-08T23:40:14.366Z,10.30
2023-05-08T23:45:16.542Z,15.60
2023-05-08T23:50:20.906Z,14.10
2023-05-08T23:55:22.637Z,24.30
